createdAt,value
2019-05-17T00:01:41.642Z,14.03
2019-05-17T00:04:22.333Z,13.10
2019-05-17T00:07:02.515Z,14.47
2019-05-17T00:09:42.462Z,14.27
2019-05-17T00:12:22.621Z,15.03
2019-05-17T00:15:02.890Z,14.27
2019-05-17T00:17:46.929Z,12.97
2019-05-17T00:20:27.490Z,13.93
2019-05-17T00:23:07.383Z,13.50
2019-05-17T00:25:47.914Z,14.90
2019-05-17T00:28:16.591Z,13.43
2019-05-17T00:31:03.729Z,14.30
2019-05-17T00:33:44.179Z,13.20
2019-05-17T00:36:26.777Z,13.30
2019-05-17T00:39:07.428Z,12.23
2019-05-17T00:41:47.637Z,13.83
2019-05-17T00:44:27.477Z,13.93
2019-05-17T00:47:07.926Z,13.87
2019-05-17T00:49:47.829Z,13.17
2019-05-17T00:52:28.188Z,14.90
2019-05-17T00:55:07.883Z,13.50
2019-05-17T00:57:48.068Z,13.33
2019-05-17T01:00:28.391Z,13.27
2019-05-17T01:03:08.587Z,13.80
2019-05-17T01:05:48.550Z,13.50
2019-05-17T01:08:29.614Z,13.83
2019-05-17T01:11:09.545Z,14.10
2019-05-17T01:13:49.629Z,15.20
2019-05-17T01:16:29.853Z,14.00
2019-05-17T01:18:57.670Z,14.10
2019-05-17T01:21:47.269Z,15.27
2019-05-17T01:24:46.865Z,12.90
2019-05-17T01:27:26.458Z,15.13
2019-05-17T01:29:53.953Z,14.80
2019-05-17T01:32:41.221Z,14.93
2019-05-17T01:35:21.714Z,15.03
2019-05-17T01:38:01.785Z,15.27
2019-05-17T01:40:42.061Z,17.37
2019-05-17T01:43:22.264Z,15.63
2019-05-17T01:46:02.157Z,15.67
2019-05-17T01:48:42.243Z,16.43
2019-05-17T01:51:22.321Z,16.33
2019-05-17T01:54:03.211Z,17.90
2019-05-17T01:56:43.340Z,18.20
2019-05-17T01:59:26.624Z,14.70
2019-05-17T02:02:10.085Z,17.43
2019-05-17T02:04:52.156Z,17.07
2019-05-17T02:07:32.413Z,17.10
2019-05-17T02:10:12.701Z,18.10
2019-05-17T02:12:52.757Z,17.00
2019-05-17T02:15:32.544Z,19.07
2019-05-17T02:18:13.241Z,17.40
2019-05-17T02:20:53.109Z,16.97
2019-05-17T02:23:33.417Z,18.30
2019-05-17T02:26:13.165Z,18.30
2019-05-17T02:28:53.201Z,18.23
2019-05-17T02:31:33.567Z,18.00
2019-05-17T02:34:14.100Z,19.10
2019-05-17T02:36:57.317Z,19.90
2019-05-17T02:39:52.585Z,19.47
2019-05-17T02:42:22.458Z,19.60
2019-05-17T02:45:03.421Z,19.60
2019-05-17T02:47:44.164Z,18.53
2019-05-17T02:50:24.193Z,19.13
2019-05-17T02:53:04.927Z,20.13
2019-05-17T02:55:44.974Z,19.30
2019-05-17T02:58:12.933Z,20.10
2019-05-17T03:01:08.187Z,20.37
2019-05-17T03:03:48.606Z,20.20
2019-05-17T03:06:28.947Z,21.07
2019-05-17T03:09:08.860Z,21.10
2019-05-17T03:11:52.846Z,21.20
2019-05-17T03:14:32.830Z,19.60
2019-05-17T03:17:14.210Z,20.33
2019-05-17T03:22:53.321Z,22.70
2019-05-17T03:25:33.971Z,20.37
2019-05-17T03:28:14.828Z,20.67
2019-05-17T03:30:56.690Z,22.40
2019-05-17T03:33:37.224Z,23.17
2019-05-17T03:36:17.825Z,21.73
2019-05-17T03:38:58.204Z,20.80
2019-05-17T03:41:29.303Z,20.57
2019-05-17T03:44:26.323Z,21.07
2019-05-17T03:47:06.147Z,21.23
2019-05-17T03:49:46.410Z,22.57
2019-05-17T03:52:26.510Z,22.90
2019-05-17T03:55:06.882Z,21.30
2019-05-17T03:57:46.795Z,22.50
2019-05-17T04:00:26.363Z,21.70
2019-05-17T04:03:07.173Z,21.87
2019-05-17T04:05:49.174Z,22.67
2019-05-17T04:08:29.041Z,23.07
2019-05-17T04:11:22.190Z,22.80
2019-05-17T04:13:53.792Z,21.93
2019-05-17T04:16:34.125Z,23.47
2019-05-17T04:19:14.262Z,20.70
2019-05-17T04:21:54.006Z,21.13
2019-05-17T04:24:34.414Z,21.67
2019-05-17T04:27:14.573Z,23.07
2019-05-17T04:29:54.665Z,22.10
2019-05-17T04:32:34.701Z,24.70
2019-05-17T04:35:14.737Z,24.77
2019-05-17T04:37:55.108Z,26.07
2019-05-17T04:40:34.964Z,23.57
2019-05-17T04:43:15.274Z,25.40
2019-05-17T04:45:55.172Z,24.40
2019-05-17T04:48:35.270Z,23.77
2019-05-17T04:51:15.241Z,22.10
2019-05-17T04:53:56.596Z,24.03
2019-05-17T04:56:36.452Z,22.37
2019-05-17T04:59:17.333Z,24.00
2019-05-17T05:01:57.477Z,25.37
2019-05-17T05:04:38.750Z,23.87
2019-05-17T05:07:22.497Z,22.63
2019-05-17T05:10:03.264Z,23.33
2019-05-17T05:12:44.325Z,22.70
2019-05-17T05:15:24.469Z,23.70
2019-05-17T05:18:04.648Z,23.47
2019-05-17T05:20:45.699Z,23.27
2019-05-17T05:23:25.679Z,23.03
2019-05-17T05:26:06.517Z,25.50
2019-05-17T05:28:49.178Z,25.20
2019-05-17T05:31:32.139Z,23.80
2019-05-17T05:34:12.427Z,25.03
2019-05-17T05:36:53.492Z,24.83
2019-05-17T05:39:34.298Z,26.30
2019-05-17T05:42:14.277Z,25.17
2019-05-17T05:44:55.567Z,25.87
2019-05-17T05:47:36.439Z,25.57
2019-05-17T05:50:17.728Z,25.87
2019-05-17T05:52:58.495Z,28.13
2019-05-17T05:55:38.392Z,28.27
2019-05-17T05:58:18.617Z,25.30
2019-05-17T06:01:02.043Z,26.60
2019-05-17T06:03:41.441Z,27.40
2019-05-17T06:06:21.611Z,26.03
2019-05-17T06:09:02.730Z,26.13
2019-05-17T06:11:43.350Z,27.77
2019-05-17T06:14:23.553Z,26.57
2019-05-17T06:17:04.253Z,26.73
2019-05-17T06:19:44.074Z,29.87
2019-05-17T06:22:25.945Z,26.00
2019-05-17T06:25:06.126Z,26.70
2019-05-17T06:27:47.489Z,26.73
2019-05-17T06:30:27.277Z,28.53
2019-05-17T06:33:07.636Z,27.37
2019-05-17T06:35:47.147Z,26.67
2019-05-17T06:38:29.416Z,26.70
2019-05-17T06:41:09.842Z,26.80
2019-05-17T06:43:52.198Z,27.00
2019-05-17T06:46:32.462Z,27.50
2019-05-17T06:49:12.745Z,26.77
2019-05-17T06:51:53.518Z,26.47
2019-05-17T06:54:33.639Z,27.07
2019-05-17T06:57:13.837Z,25.00
2019-05-17T06:59:53.640Z,29.87
2019-05-17T07:02:36.025Z,24.80
2019-05-17T07:05:20.531Z,26.50
2019-05-17T07:08:01.118Z,25.43
2019-05-17T07:10:40.827Z,27.20
2019-05-17T07:13:10.517Z,26.07
2019-05-17T07:16:10.149Z,26.70
2019-05-17T07:18:56.709Z,25.77
2019-05-17T07:21:37.605Z,26.03
2019-05-17T07:24:19.596Z,25.73
2019-05-17T07:27:00.460Z,25.57
2019-05-17T07:29:40.601Z,25.43
2019-05-17T07:32:20.937Z,25.77
2019-05-17T07:35:00.777Z,27.40
2019-05-17T07:37:40.772Z,25.70
2019-05-17T07:40:20.870Z,26.27
2019-05-17T07:43:10.612Z,31.37
2019-05-17T07:45:44.185Z,26.83
2019-05-17T07:48:24.201Z,24.73
2019-05-17T07:51:04.308Z,29.37
2019-05-17T07:53:44.628Z,24.70
2019-05-17T07:56:26.188Z,23.90
2019-05-17T07:59:09.543Z,23.87
2019-05-17T08:01:50.442Z,24.50
2019-05-17T08:04:31.038Z,25.63
2019-05-17T08:07:11.359Z,24.03
2019-05-17T08:09:51.162Z,25.03
2019-05-17T08:12:30.973Z,24.17
2019-05-17T08:15:11.920Z,25.97
2019-05-17T08:17:51.871Z,22.67
2019-05-17T08:20:32.603Z,24.13
2019-05-17T08:23:12.733Z,23.40
2019-05-17T08:25:56.228Z,26.00
2019-05-17T08:28:35.072Z,24.00
2019-05-17T08:31:15.226Z,24.67
2019-05-17T08:33:55.725Z,21.97
2019-05-17T08:36:35.220Z,20.80
2019-05-17T08:39:15.719Z,22.17
2019-05-17T08:41:55.497Z,22.13
2019-05-17T08:44:36.129Z,20.70
2019-05-17T08:47:16.555Z,22.10
2019-05-17T08:49:56.808Z,21.40
2019-05-17T08:52:36.761Z,19.90
2019-05-17T08:55:16.849Z,20.43
2019-05-17T08:57:44.343Z,19.73
2019-05-17T09:00:32.228Z,20.47
2019-05-17T09:03:12.085Z,20.43
2019-05-17T09:05:52.801Z,19.10
2019-05-17T09:08:33.222Z,18.33
2019-05-17T09:11:00.714Z,17.57
2019-05-17T09:13:55.591Z,16.63
2019-05-17T09:16:50.508Z,17.50
2019-05-17T09:19:30.696Z,16.50
2019-05-17T09:22:10.777Z,15.10
2019-05-17T09:24:50.833Z,17.57
2019-05-17T09:27:31.230Z,15.70
2019-05-17T09:30:13.025Z,16.27
2019-05-17T09:32:53.199Z,17.13
2019-05-17T09:35:33.469Z,18.70
2019-05-17T09:38:13.900Z,18.10
2019-05-17T09:40:55.865Z,18.43
2019-05-17T09:43:35.727Z,17.30
2019-05-17T09:46:15.796Z,17.33
2019-05-17T09:49:00.890Z,17.97
2019-05-17T09:51:40.126Z,21.03
2019-05-17T09:54:19.764Z,19.37
2019-05-17T09:57:00.549Z,18.60
2019-05-17T09:59:40.888Z,19.80
2019-05-17T10:02:22.235Z,17.50
2019-05-17T10:05:02.382Z,16.03
2019-05-17T10:07:42.591Z,16.57
2019-05-17T10:10:22.709Z,18.03
2019-05-17T10:13:02.953Z,16.67
2019-05-17T10:15:30.488Z,17.70
2019-05-17T10:18:17.265Z,15.10
2019-05-17T10:20:44.580Z,17.60
2019-05-17T10:23:52.116Z,17.10
2019-05-17T10:26:33.665Z,16.60
2019-05-17T10:29:14.098Z,16.30
2019-05-17T10:31:53.917Z,17.50
2019-05-17T10:34:33.666Z,17.07
2019-05-17T10:37:13.799Z,14.53
2019-05-17T10:39:54.536Z,16.20
2019-05-17T10:42:35.022Z,16.17
2019-05-17T10:45:15.461Z,16.70
2019-05-17T10:47:56.427Z,16.13
2019-05-17T10:50:36.681Z,15.03
2019-05-17T10:53:17.479Z,15.10
2019-05-17T10:56:00.680Z,14.73
2019-05-17T10:58:40.709Z,16.47
2019-05-17T11:01:21.053Z,16.13
2019-05-17T11:04:02.194Z,16.60
2019-05-17T11:06:43.077Z,16.80
2019-05-17T11:09:23.665Z,17.20
2019-05-17T11:12:03.175Z,15.10
2019-05-17T11:14:55.790Z,16.63
2019-05-17T11:17:25.097Z,15.80
2019-05-17T11:20:04.836Z,15.83
2019-05-17T11:22:32.008Z,15.37
2019-05-17T11:25:19.302Z,14.73
2019-05-17T11:28:01.541Z,15.83
2019-05-17T11:30:42.194Z,16.63
2019-05-17T11:33:10.350Z,15.80
2019-05-17T11:35:50.916Z,16.00
2019-05-17T11:38:30.783Z,14.93
2019-05-17T11:41:20.359Z,14.50
2019-05-17T11:43:53.086Z,15.03
2019-05-17T11:46:36.143Z,13.93
2019-05-17T11:49:14.685Z,14.20
2019-05-17T11:51:54.825Z,14.00
2019-05-17T11:54:34.750Z,13.63
2019-05-17T11:57:15.423Z,13.00
2019-05-17T11:59:56.077Z,13.97
2019-05-17T12:02:36.473Z,15.70
2019-05-17T12:05:16.585Z,13.37
2019-05-17T12:07:56.721Z,12.67
2019-05-17T12:10:36.451Z,12.70
2019-05-17T12:13:16.973Z,12.47
2019-05-17T12:15:56.777Z,12.80
2019-05-17T12:18:37.542Z,12.03
2019-05-17T12:21:18.213Z,12.20
2019-05-17T12:23:58.494Z,12.83
2019-05-17T12:26:38.745Z,11.83
2019-05-17T12:29:18.627Z,12.90
2019-05-17T12:31:58.972Z,13.00
2019-05-17T12:34:39.177Z,11.97
2019-05-17T12:37:19.918Z,12.57
2019-05-17T12:39:59.621Z,12.70
2019-05-17T12:42:39.586Z,12.50
2019-05-17T12:45:20.051Z,11.50
2019-05-17T12:48:00.025Z,13.37
2019-05-17T12:50:39.779Z,10.50
2019-05-17T12:53:19.823Z,10.00
2019-05-17T12:56:00.543Z,11.00
2019-05-17T12:58:40.785Z,10.57
2019-05-17T13:01:20.850Z,10.90
2019-05-17T13:04:01.145Z,10.90
2019-05-17T13:06:40.652Z,11.50
2019-05-17T13:09:21.156Z,10.60
2019-05-17T13:12:01.550Z,11.50
2019-05-17T13:14:41.457Z,10.70
2019-05-17T13:17:21.959Z,8.40
2019-05-17T13:20:02.239Z,10.00
2019-05-17T13:22:44.207Z,9.40
2019-05-17T13:25:32.709Z,9.33
2019-05-17T13:31:29.216Z,8.70
2019-05-17T13:34:09.517Z,8.37
2019-05-17T13:36:49.639Z,8.80
2019-05-17T13:39:29.751Z,9.43
2019-05-17T13:42:09.994Z,8.93
2019-05-17T13:44:50.294Z,8.37
2019-05-17T13:47:17.952Z,8.00
2019-05-17T13:50:04.927Z,8.67
2019-05-17T13:52:45.331Z,7.10
2019-05-17T13:55:25.689Z,7.00
2019-05-17T13:58:05.478Z,6.83
2019-05-17T14:00:46.561Z,7.50
2019-05-17T14:03:26.491Z,6.90
2019-05-17T14:06:06.871Z,7.10
2019-05-17T14:08:46.836Z,8.90
2019-05-17T14:11:26.872Z,6.53
2019-05-17T14:14:06.819Z,6.53
2019-05-17T14:16:47.308Z,7.00
2019-05-17T14:19:27.460Z,7.40
2019-05-17T14:22:07.131Z,6.37
2019-05-17T14:24:47.473Z,6.10
2019-05-17T14:27:27.656Z,7.10
2019-05-17T14:30:07.545Z,7.10
2019-05-17T14:32:47.878Z,7.23
2019-05-17T14:35:27.546Z,6.40
2019-05-17T14:38:07.614Z,8.80
2019-05-17T14:41:05.504Z,7.80
2019-05-17T14:43:31.921Z,7.57
2019-05-17T14:46:13.201Z,7.90
2019-05-17T14:48:53.661Z,7.00
2019-05-17T14:51:33.801Z,6.10
2019-05-17T14:54:14.453Z,6.37
2019-05-17T14:56:55.426Z,6.17
2019-05-17T14:59:35.373Z,6.57
2019-05-17T15:02:16.038Z,6.70
2019-05-17T15:04:55.770Z,6.17
2019-05-17T15:10:35.022Z,7.00
2019-05-17T15:13:15.094Z,6.77
2019-05-17T15:15:42.954Z,7.13
2019-05-17T15:18:30.331Z,7.00
2019-05-17T15:21:10.598Z,6.77
2019-05-17T15:23:38.574Z,6.70
2019-05-17T15:26:28.370Z,7.23
2019-05-17T15:29:09.064Z,6.40
2019-05-17T15:31:51.968Z,5.80
2019-05-17T15:34:31.198Z,5.90
2019-05-17T15:37:11.422Z,6.60
2019-05-17T15:39:51.289Z,6.40
2019-05-17T15:42:43.311Z,5.90
2019-05-17T15:45:13.267Z,5.27
2019-05-17T15:47:53.538Z,6.30
2019-05-17T15:50:33.631Z,9.17
2019-05-17T15:53:13.758Z,8.03
2019-05-17T15:55:53.899Z,5.37
2019-05-17T15:58:34.299Z,5.50
2019-05-17T16:01:15.191Z,5.37
2019-05-17T16:03:54.937Z,5.57
2019-05-17T16:06:35.302Z,5.80
2019-05-17T16:09:15.508Z,5.40
2019-05-17T16:11:55.364Z,5.70
2019-05-17T16:14:35.474Z,5.13
2019-05-17T16:17:15.207Z,5.20
2019-05-17T16:19:55.879Z,5.03
2019-05-17T16:22:35.479Z,5.00
2019-05-17T16:25:15.886Z,6.33
2019-05-17T16:27:55.980Z,6.20
2019-05-17T16:30:36.013Z,5.43
2019-05-17T16:33:15.570Z,6.20
2019-05-17T16:35:55.814Z,5.20
2019-05-17T16:38:36.626Z,5.40
2019-05-17T16:41:17.426Z,4.50
2019-05-17T16:43:57.265Z,5.50
2019-05-17T16:46:37.738Z,5.00
2019-05-17T16:49:18.210Z,5.50
2019-05-17T16:51:58.094Z,4.60
2019-05-17T16:54:38.147Z,4.67
2019-05-17T16:57:18.564Z,4.93
2019-05-17T16:59:58.271Z,4.43
2019-05-17T17:02:38.919Z,4.93
2019-05-17T17:05:18.580Z,4.00
2019-05-17T17:07:58.887Z,3.77
2019-05-17T17:10:38.883Z,4.90
2019-05-17T17:13:32.357Z,5.00
2019-05-17T17:16:01.084Z,4.70
2019-05-17T17:18:41.044Z,3.90
2019-05-17T17:21:21.115Z,4.03
2019-05-17T17:24:02.190Z,4.07
2019-05-17T17:26:42.166Z,3.80
2019-05-17T17:29:22.495Z,3.80
2019-05-17T17:32:02.559Z,3.37
2019-05-17T17:34:42.426Z,4.00
2019-05-17T17:37:22.658Z,3.70
2019-05-17T17:40:02.354Z,3.60
2019-05-17T17:42:42.421Z,3.60
2019-05-17T17:45:22.728Z,4.97
2019-05-17T17:48:02.754Z,11.00
2019-05-17T17:50:43.757Z,3.73
2019-05-17T17:53:23.811Z,4.80
2019-05-17T17:56:03.614Z,3.50
2019-05-17T17:58:43.547Z,3.90
2019-05-17T18:01:23.863Z,5.63
2019-05-17T18:04:03.688Z,5.97
2019-05-17T18:06:43.993Z,6.03
2019-05-17T18:09:24.843Z,5.30
2019-05-17T18:15:06.479Z,4.00
2019-05-17T18:17:46.313Z,4.80
2019-05-17T18:20:26.522Z,4.17
2019-05-17T18:23:06.520Z,3.90
2019-05-17T18:25:46.895Z,3.90
2019-05-17T18:28:26.642Z,3.40
2019-05-17T18:31:06.526Z,3.23
2019-05-17T18:33:47.131Z,2.93
2019-05-17T18:36:27.155Z,2.60
2019-05-17T18:39:08.050Z,2.67
2019-05-17T18:41:50.501Z,2.00
2019-05-17T18:44:30.566Z,2.10
2019-05-17T18:47:10.645Z,2.60
2019-05-17T18:49:51.250Z,2.20
2019-05-17T18:52:30.799Z,2.00
2019-05-17T18:55:10.978Z,2.50
2019-05-17T18:57:51.145Z,2.53
2019-05-17T19:00:31.235Z,2.40
2019-05-17T19:03:11.390Z,2.17
2019-05-17T19:05:50.830Z,2.07
2019-05-17T19:08:31.379Z,1.87
2019-05-17T19:11:11.267Z,2.40
2019-05-17T19:13:51.174Z,1.83
2019-05-17T19:16:31.153Z,1.70
2019-05-17T19:19:11.059Z,1.83
2019-05-17T19:21:51.060Z,2.03
2019-05-17T19:24:31.474Z,2.00
2019-05-17T19:27:12.039Z,2.00
2019-05-17T19:29:51.974Z,2.10
2019-05-17T19:32:32.054Z,1.83
2019-05-17T19:35:13.294Z,2.37
2019-05-17T19:37:53.586Z,2.07
2019-05-17T19:40:33.558Z,2.30
2019-05-17T19:43:13.498Z,2.30
2019-05-17T19:45:53.443Z,2.30
2019-05-17T19:48:33.950Z,2.40
2019-05-17T19:51:14.134Z,2.80
2019-05-17T19:53:54.219Z,2.43
2019-05-17T19:56:34.114Z,2.73
2019-05-17T19:59:14.466Z,2.60
2019-05-17T20:01:54.606Z,3.00
2019-05-17T20:04:35.132Z,2.63
2019-05-17T20:07:14.918Z,2.70
2019-05-17T20:09:55.182Z,2.73
2019-05-17T20:12:35.210Z,2.80
2019-05-17T20:15:17.796Z,3.10
2019-05-17T20:17:57.118Z,2.70
2019-05-17T20:20:37.280Z,2.77
2019-05-17T20:23:17.321Z,3.40
2019-05-17T20:25:57.359Z,2.87
2019-05-17T20:28:37.662Z,2.67
2019-05-17T20:31:17.543Z,2.93
2019-05-17T20:33:57.470Z,3.00
2019-05-17T20:36:37.293Z,3.17
2019-05-17T20:39:17.298Z,3.73
2019-05-17T20:41:57.610Z,3.73
2019-05-17T20:44:37.884Z,4.20
2019-05-17T20:47:17.912Z,9.77
2019-05-17T20:49:58.203Z,11.67
2019-05-17T20:52:38.183Z,4.37
2019-05-17T20:55:18.828Z,3.70
2019-05-17T20:57:59.959Z,3.73
2019-05-17T21:00:40.976Z,3.97
2019-05-17T21:03:21.379Z,3.43
2019-05-17T21:06:01.235Z,4.33
2019-05-17T21:08:46.148Z,6.17
2019-05-17T21:11:23.608Z,4.43
2019-05-17T21:14:03.791Z,5.30
2019-05-17T21:16:31.863Z,5.30
2019-05-17T21:19:18.833Z,5.00
2019-05-17T21:21:59.193Z,4.27
2019-05-17T21:24:39.469Z,5.50
2019-05-17T21:27:19.802Z,5.37
2019-05-17T21:29:59.538Z,4.37
2019-05-17T21:32:39.464Z,4.03
2019-05-17T21:35:19.933Z,4.90
2019-05-17T21:38:00.121Z,4.97
2019-05-17T21:40:41.185Z,4.87
2019-05-17T21:43:20.910Z,4.60
2019-05-17T21:46:04.154Z,4.17
2019-05-17T21:48:43.311Z,4.00
2019-05-17T21:51:23.894Z,4.93
2019-05-17T21:53:51.657Z,3.90
2019-05-17T21:56:38.426Z,4.17
2019-05-17T21:59:18.174Z,4.70
2019-05-17T22:01:58.617Z,4.10
2019-05-17T22:04:38.417Z,4.40
2019-05-17T22:07:19.420Z,5.07
2019-05-17T22:09:59.905Z,8.73
2019-05-17T22:12:39.825Z,6.87
2019-05-17T22:15:19.628Z,6.70
2019-05-17T22:18:00.123Z,12.73
2019-05-17T22:20:40.122Z,7.00
2019-05-17T22:23:20.004Z,13.00
2019-05-17T22:26:00.262Z,9.80
2019-05-17T22:28:40.529Z,5.60
2019-05-17T22:31:20.608Z,4.53
2019-05-17T22:34:00.023Z,3.47
2019-05-17T22:36:40.378Z,4.10
2019-05-17T22:39:20.738Z,4.17
2019-05-17T22:42:00.850Z,3.73
2019-05-17T22:44:40.626Z,3.30
2019-05-17T22:47:20.789Z,3.23
2019-05-17T22:50:00.905Z,3.40
2019-05-17T22:52:41.430Z,4.47
2019-05-17T22:55:22.178Z,3.43
2019-05-17T22:58:04.390Z,4.30
2019-05-17T23:00:43.910Z,4.73
2019-05-17T23:03:24.526Z,4.33
2019-05-17T23:06:04.347Z,4.63
2019-05-17T23:08:44.163Z,4.67
2019-05-17T23:11:24.514Z,4.30
2019-05-17T23:14:04.114Z,3.90
2019-05-17T23:16:51.663Z,3.93
2019-05-17T23:19:26.664Z,5.20
2019-05-17T23:22:06.530Z,4.80
2019-05-17T23:24:46.915Z,5.07
2019-05-17T23:27:26.986Z,5.90
2019-05-17T23:30:06.830Z,5.93
2019-05-17T23:32:46.703Z,6.90
2019-05-17T23:35:26.959Z,6.60
2019-05-17T23:37:54.047Z,7.50
2019-05-17T23:40:41.050Z,8.73
2019-05-17T23:43:20.870Z,7.37
2019-05-17T23:46:00.774Z,7.70
2019-05-17T23:48:40.830Z,8.03
2019-05-17T23:51:20.943Z,7.87
2019-05-17T23:54:00.615Z,9.57
2019-05-17T23:56:41.455Z,9.63
2019-05-17T23:59:21.034Z,9.67
